γιώργος κ. ματσαρίδης

35.35423100313252, 24.45128731456762

1975, 2

(.) QzmMB8dTwGs

τόλμησον φρονεῖν! / 

δυνάμωσις

φ

Santiago Ramón y Cajal, [-70mV, 20w]

LGIR 231850Z 28011KT 9000 -RA FEW018TCU BKN025 09/08 Q1005 NOSIG

Aria & Takamine

Αστήρ και Κρόταλος και Ψύλλος

H2O + C2H5OH + C9H16O2 + C10H12O2

$w("#dataset1").onReady( () => { 
  console.log("The dataset is ready");

3-11 décembre 1849.
Loi sur la naturalisation et le séjour des étrangers en France.
(X, BuIl. CCXVIII, n. 1814.)

LingLab collections

μηδείς ἀγεωμέτρητος εἰσίτω

Curriculum

Vitae

εναλλακτικό

συνοπτικό

αναλυτικό

© 2021 George K. Matsaridis

  • LinkedIn - White Circle
  • Facebook - White Circle
  • Spotify - White Circle
  • YouTube - White Circle